Tenes, Algeria
Current Conditions -  °F | °C
As of 7:00 PM on Thursday 30 Oct 2014 (Local Time) from DAOI Reporting Station
Clear Clear  
Wind Chill: 73°   Ceiling: Unl
Heat Index: 73°   Visibility: 6mi
Dew Point: 36°   Wind: 12mph
Humidity: 25%   Direction: 20°NNE
Pressure: 30.12"   Gusts: NA
Location:  36.51°N, 1.31°E
Report Text: DAOI 301800Z 02010KT CAVOK 23/02 Q1020
Loading
Personal Weather Stations






























Interactive Weather Map
Tropical Storm Tracking
New forecast layout! Learn more

10-Day Weather Forecast

Advertisements
Track Severe Weather on mobile